Time;durP1;ratioP1;P1;durP2;ratioP2;P2;SDS_P1;SDS_P2;PMS_P1;PMS_P2;Temp;Humidity;BMP_temperature;BMP_pressure;BME280_temperature;BME280_humidity;BME280_pressure;Samples;Min_cycle;Max_cycle;Signal;HPM_P1;HPM_P2
2021/07/02 00:01:05;;;;;;;;;33.75;31.50;;;;;22.40;54.82;101022.81;5095078;27;45461;-81
2021/07/02 00:03:30;;;;;;;;;30.75;28.00;;;;;22.39;54.50;101016.66;5094633;27;46385;-82
2021/07/02 00:05:56;;;;;;;;;37.25;31.00;;;;;22.41;55.09;101011.09;5076382;27;48073;-80
2021/07/02 00:11:43;;;;;;;;;28.50;26.75;;;;;22.31;54.95;100992.66;5094779;27;45615;-82
2021/07/02 00:14:08;;;;;;;;;32.50;28.75;;;;;22.40;55.20;101009.47;5094541;27;45590;-82
2021/07/02 00:16:34;;;;;;;;;32.75;31.75;;;;;22.34;55.02;100994.16;5094829;27;45568;-82
2021/07/02 00:19:01;;;;;;;;;29.75;27.00;;;;;22.39;55.34;101002.47;5076133;27;45552;-82
2021/07/02 00:21:26;;;;;;;;;33.00;30.75;;;;;22.34;54.91;100994.97;5094916;27;45945;-81
2021/07/02 00:23:52;;;;;;;;;31.75;29.50;;;;;22.30;55.34;100990.97;5093997;27;45698;-82
2021/07/02 00:26:17;;;;;;;;;31.25;29.00;;;;;22.39;55.34;101002.47;5094193;27;46096;-82
2021/07/02 00:28:45;;;;;;;;;34.25;29.50;;;;;22.16;55.27;100973.88;5094579;27;45631;-81
2021/07/02 00:31:11;;;;;;;;;31.00;29.75;;;;;22.28;55.21;101001.03;5094321;27;45796;-82
2021/07/02 00:33:36;;;;;;;;;33.00;30.75;;;;;22.33;55.32;101014.66;5075535;27;47969;-81
2021/07/02 00:36:03;;;;;;;;;32.50;29.00;;;;;22.16;54.99;100986.38;5094313;27;46340;-81
2021/07/02 00:41:50;;;;;;;;;30.00;29.00;;;;;22.13;55.51;100992.91;5094461;27;45757;-81
2021/07/02 00:44:15;;;;;;;;;30.00;29.00;;;;;22.14;55.53;101004.41;5094328;27;46399;-80
2021/07/02 00:46:41;;;;;;;;;32.00;30.25;;;;;22.18;55.39;101013.75;5093857;27;46289;-82
2021/07/02 00:49:07;;;;;;;;;34.50;29.75;;;;;22.06;55.18;101002.63;5094312;27;46029;-81
2021/07/02 00:57:58;;;;;;;;;28.50;26.75;;;;;22.08;55.63;101013.09;5093933;27;45632;-82
2021/07/02 01:00:24;;;;;;;;;31.75;28.50;;;;;22.07;55.68;101022.16;5094389;27;45589;-80
2021/07/02 01:02:50;;;;;;;;;29.75;27.00;;;;;22.05;55.67;101013.47;5092453;27;45681;-81
2021/07/02 01:05:15;;;;;;;;;31.50;28.75;;;;;21.98;55.42;101012.47;5075508;27;48313;-81
2021/07/02 01:07:42;;;;;;;;;27.25;26.25;;;;;22.01;55.76;101009.50;5094280;27;46502;-81
2021/07/02 01:10:08;;;;;;;;;31.00;28.75;;;;;21.90;55.74;101002.66;5094199;27;45881;-81
2021/07/02 01:12:34;;;;;;;;;38.50;31.25;;;;;21.80;55.89;100988.69;5094257;27;45612;-81
2021/07/02 01:14:59;;;;;;;;;33.25;29.00;;;;;21.92;55.88;101010.47;5093995;27;45525;-81
2021/07/02 01:17:25;;;;;;;;;29.50;27.00;;;;;21.90;56.09;101013.34;5094110;27;45597;-81
2021/07/02 01:19:53;;;;;;;;;30.75;29.75;;;;;21.90;55.81;101012.50;5093910;27;45548;-81
2021/07/02 01:22:26;;;;;;;;;34.50;31.00;;;;;21.90;56.07;101005.34;5095822;27;45727;-81
2021/07/02 01:24:56;;;;;;;;;33.00;28.00;;;;;21.82;56.24;101001.84;5097553;27;46479;-80
2021/07/02 01:27:22;;;;;;;;;30.25;29.00;;;;;21.84;56.19;100998.00;5097349;27;46282;-80
2021/07/02 01:29:49;;;;;;;;;30.75;28.50;;;;;21.85;55.85;101001.50;5097504;27;45802;-80
2021/07/02 01:32:16;;;;;;;;;33.00;31.00;;;;;21.86;55.90;101003.19;5101645;27;45786;-81
2021/07/02 01:34:42;;;;;;;;;31.25;30.00;;;;;21.76;55.84;100982.03;5104187;27;46848;-81
2021/07/02 01:37:08;;;;;;;;;28.75;28.25;;;;;21.81;56.31;101008.22;5104213;27;45575;-81
2021/07/02 01:39:34;;;;;;;;;31.50;29.75;;;;;21.77;56.46;101008.53;5104339;27;45896;-81
2021/07/02 01:42:00;;;;;;;;;29.50;27.50;;;;;21.75;56.32;101007.06;5103807;27;45624;-81
2021/07/02 01:44:26;;;;;;;;;28.75;26.25;;;;;21.70;56.48;101006.75;5098425;27;45782;-81
2021/07/02 01:46:51;;;;;;;;;32.25;28.75;;;;;21.63;56.59;101003.91;5097116;27;46327;-81
2021/07/02 01:49:17;;;;;;;;;31.25;30.75;;;;;21.63;56.34;100997.75;5078651;27;45746;-81
2021/07/02 01:51:42;;;;;;;;;29.00;27.00;;;;;21.59;56.72;101010.56;5097311;27;45863;-80
2021/07/02 01:57:29;;;;;;;;;28.25;26.75;;;;;21.52;56.70;100998.09;5096711;27;45728;-80
2021/07/02 01:59:55;;;;;;;;;36.25;31.00;;;;;21.41;56.92;100969.97;5096942;27;45911;-81
2021/07/02 02:02:21;;;;;;;;;31.75;27.25;;;;;21.47;57.10;100987.97;5095493;27;45595;-80
2021/07/02 02:04:47;;;;;;;;;30.25;27.25;;;;;21.48;57.18;100984.31;5096793;27;46403;-80
2021/07/02 02:07:13;;;;;;;;;32.75;29.75;;;;;21.48;57.16;100983.47;5097054;27;45992;-80
2021/07/02 02:09:38;;;;;;;;;30.75;27.50;;;;;21.46;57.00;100978.28;5096685;27;45784;-80
2021/07/02 02:12:04;;;;;;;;;35.50;29.75;;;;;21.39;57.27;100966.63;5096855;27;45703;-81
2021/07/02 02:14:30;;;;;;;;;30.50;27.75;;;;;21.50;57.54;100987.59;5096542;27;45661;-81
2021/07/02 02:16:56;;;;;;;;;28.50;27.00;;;;;21.47;57.25;100979.97;5096574;27;45620;-82
2021/07/02 02:19:22;;;;;;;;;29.75;27.50;;;;;21.39;57.37;100968.47;5096341;27;45769;-81
2021/07/02 02:21:48;;;;;;;;;29.00;26.75;;;;;21.51;57.52;100986.59;5095241;27;45916;-81
2021/07/02 02:27:37;;;;;;;;;28.50;27.50;;;;;21.48;57.34;100981.63;5096227;27;46002;-81
2021/07/02 02:30:05;;;;;;;;;30.75;30.00;;;;;21.46;57.46;100982.78;5077812;27;45691;-81
2021/07/02 02:32:30;;;;;;;;;32.25;30.50;;;;;21.44;57.56;100985.63;5096115;27;45674;-81
2021/07/02 02:34:56;;;;;;;;;26.00;25.75;;;;;21.42;57.42;100976.13;5096490;27;46354;-80
2021/07/02 02:37:21;;;;;;;;;28.75;28.25;;;;;21.38;57.65;100972.97;5096416;27;45699;-82
2021/07/02 02:43:08;;;;;;;;;31.25;27.00;;;;;21.38;57.74;100977.50;5096379;27;45677;-82
2021/07/02 02:45:34;;;;;;;;;28.00;26.00;;;;;21.29;57.51;100966.81;5096168;27;45720;-82
2021/07/02 02:47:59;;;;;;;;;28.75;26.75;;;;;21.28;57.78;100959.00;5095725;27;46384;-82
2021/07/02 02:50:24;;;;;;;;;35.25;28.75;;;;;21.31;57.69;100977.31;5096086;27;45663;-82
2021/07/02 02:52:50;;;;;;;;;26.75;24.25;;;;;21.29;57.93;100974.00;5095955;27;45578;-82
2021/07/02 02:55:15;;;;;;;;;31.50;27.50;;;;;21.33;58.03;100973.47;5096297;27;45612;-82
2021/07/02 02:57:41;;;;;;;;;32.00;29.25;;;;;21.28;57.97;100967.81;5095787;27;46352;-82
2021/07/02 03:00:09;;;;;;;;;29.50;27.50;;;;;21.32;57.75;100976.34;5096119;27;45894;-82
2021/07/02 03:02:34;;;;;;;;;29.00;27.50;;;;;21.21;57.95;100958.88;5096187;27;45501;-82
2021/07/02 03:05:00;;;;;;;;;34.75;31.00;;;;;21.27;57.83;100971.47;5095830;27;46412;-81
2021/07/02 03:07:25;;;;;;;;;30.00;28.00;;;;;21.25;57.91;100964.69;5095900;27;45595;-81
2021/07/02 03:13:12;;;;;;;;;27.50;26.50;;;;;21.10;58.28;100947.69;5095747;27;45629;-82
2021/07/02 03:15:38;;;;;;;;;30.00;27.50;;;;;21.20;58.08;100961.69;5095901;27;46336;-82
2021/07/02 03:18:03;;;;;;;;;29.75;29.25;;;;;21.14;57.96;100957.88;5095975;27;47344;-82
2021/07/02 03:20:28;;;;;;;;;28.25;27.75;;;;;21.19;58.05;100963.50;5094062;27;46058;-81
2021/07/02 03:22:54;;;;;;;;;31.50;30.50;;;;;21.11;58.20;100958.16;5096092;27;45576;-81
2021/07/02 03:25:20;;;;;;;;;33.25;29.75;;;;;21.01;58.39;100941.50;5095858;27;46275;-83
2021/07/02 03:27:45;;;;;;;;;27.75;27.00;;;;;21.16;58.48;100965.69;5096041;27;45599;-81
2021/07/02 03:30:13;;;;;;;;;30.75;28.75;;;;;21.07;58.57;100964.81;5096459;27;45744;-81
2021/07/02 03:32:39;;;;;;;;;31.25;29.75;;;;;21.02;58.63;100959.16;5099415;27;46045;-82
2021/07/02 03:35:06;;;;;;;;;34.50;31.25;;;;;21.06;58.72;100979.16;5101923;27;45602;-82
2021/07/02 03:37:32;;;;;;;;;33.50;30.00;;;;;20.87;58.61;100950.19;5102537;27;45694;-82
2021/07/02 03:43:19;;;;;;;;;29.25;28.00;;;;;20.80;58.74;100952.69;5101481;27;45718;-82
2021/07/02 03:45:44;;;;;;;;;30.00;27.50;;;;;20.80;58.94;100960.69;5098917;27;46185;-81
2021/07/02 03:48:10;;;;;;;;;28.00;27.25;;;;;20.84;59.10;100969.16;5095613;27;45775;-82
2021/07/02 03:50:36;;;;;;;;;34.50;29.00;;;;;20.76;58.86;100961.19;5096689;27;45767;-81
2021/07/02 03:53:01;;;;;;;;;29.75;28.50;;;;;20.71;59.22;100953.69;5095957;27;45654;-81
2021/07/02 03:58:48;;;;;;;;;27.75;27.75;;;;;20.75;59.13;100970.16;5095118;27;46061;-82
2021/07/02 04:01:14;;;;;;;;;30.25;28.00;;;;;20.64;59.09;100958.00;5095303;27;45540;-81
2021/07/02 04:03:39;;;;;;;;;27.50;26.25;;;;;20.62;59.29;100957.31;5095069;27;45660;-81
2021/07/02 04:06:04;;;;;;;;;25.50;25.00;;;;;20.60;59.72;100956.69;5094863;27;46253;-81
2021/07/02 04:08:30;;;;;;;;;28.00;26.75;;;;;20.69;59.45;100970.81;5094861;27;45965;-82
2021/07/02 04:10:55;;;;;;;;;27.00;26.50;;;;;20.61;59.22;100961.00;5095008;27;45594;-82
2021/07/02 04:13:22;;;;;;;;;25.75;25.00;;;;;20.63;59.35;100961.66;5095071;27;45876;-80
2021/07/02 04:15:49;;;;;;;;;30.75;26.00;;;;;20.68;59.55;100971.81;5093056;27;46447;-81
2021/07/02 04:18:14;;;;;;;;;36.25;31.00;;;;;20.59;59.47;100957.69;5094511;27;45990;-81
2021/07/02 04:20:40;;;;;;;;;32.25;29.50;;;;;20.52;59.69;100959.31;5094730;27;45630;-82
2021/07/02 04:23:06;;;;;;;;;30.00;28.00;;;;;20.49;59.34;100952.50;5094663;27;45775;-82
2021/07/02 04:28:53;;;;;;;;;35.50;31.75;;;;;20.65;59.77;100988.13;5094098;27;45666;-81
2021/07/02 04:31:18;;;;;;;;;35.75;30.50;;;;;20.51;59.59;100969.13;5075863;27;45588;-82
2021/07/02 04:33:44;;;;;;;;;36.00;32.00;;;;;20.31;59.53;100949.16;5094608;27;45620;-81
2021/07/02 04:36:09;;;;;;;;;37.25;32.75;;;;;20.30;59.59;100936.78;5075628;27;48389;-80
2021/07/02 04:38:35;;;;;;;;;37.75;31.00;;;;;20.55;59.75;100990.97;5094144;27;45693;-81
2021/07/02 04:41:00;;;;;;;;;33.25;30.25;;;;;20.39;59.76;100972.28;5094533;27;45502;-82
2021/07/02 04:43:25;;;;;;;;;37.00;33.50;;;;;20.53;59.72;100998.25;5094649;27;45634;-81
2021/07/02 04:45:51;;;;;;;;;33.50;30.50;;;;;20.53;59.87;100991.13;5094386;27;46717;-82
2021/07/02 04:48:16;;;;;;;;;31.00;29.50;;;;;20.49;59.90;100988.94;5094173;27;45555;-81
2021/07/02 04:51:07;;;;;;;;;37.50;33.50;;;;;20.04;60.10;100920.94;5076007;27;46144;-80
2021/07/02 04:53:32;;;;;;;;;35.75;31.75;;;;;20.12;59.83;100936.13;5094379;27;45660;-83
2021/07/02 04:59:26;;;;;;;;;37.25;33.25;;;;;20.18;60.11;100929.31;5097720;27;45596;-83
2021/07/02 05:01:55;;;;;;;;;34.75;29.75;;;;;20.13;60.13;100930.59;5079153;27;46013;-82
2021/07/02 05:04:21;;;;;;;;;41.25;35.00;;;;;20.59;60.14;100992.28;5097754;27;45771;-81
2021/07/02 05:06:55;;;;;;;;;34.25;31.00;;;;;20.15;60.32;100927.78;5113573;27;47444;-80
2021/07/02 05:09:25;;;;;;;;;47.00;38.50;;;;;20.43;60.33;100961.16;5097935;27;46289;-82
2021/07/02 05:11:51;;;;;;;;;33.25;31.25;;;;;20.25;60.20;100943.59;5097483;27;45934;-81
2021/07/02 05:14:19;;;;;;;;;20.50;19.25;;;;;20.56;60.19;100986.47;5097765;27;45738;-82
2021/07/02 05:16:47;;;;;;;;;33.75;29.75;;;;;20.41;60.22;100964.97;5078709;27;48467;-82
2021/07/02 05:19:12;;;;;;;;;29.75;29.50;;;;;20.19;60.32;100907.84;5097420;27;46008;-81
2021/07/02 05:21:38;;;;;;;;;30.00;28.25;;;;;20.46;60.01;100955.47;5097369;27;45560;-81
2021/07/02 05:24:03;;;;;;;;;33.25;31.00;;;;;20.56;60.54;100962.50;5097374;27;45906;-82
2021/07/02 05:26:29;;;;;;;;;34.75;30.75;;;;;20.69;60.22;100976.97;5097452;27;45506;-82
2021/07/02 05:28:57;;;;;;;;;36.75;33.50;;;;;20.71;60.05;100983.00;5078648;27;46170;-81
2021/07/02 05:31:23;;;;;;;;;35.25;30.25;;;;;20.76;60.37;100986.00;5097627;27;45749;-82
2021/07/02 05:33:48;;;;;;;;;35.25;31.25;;;;;20.81;60.24;100991.66;5097696;27;45857;-81
2021/07/02 05:36:13;;;;;;;;;35.00;30.00;;;;;20.78;60.47;100978.66;5097201;27;46640;-81
2021/07/02 05:38:39;;;;;;;;;29.75;28.75;;;;;20.85;60.53;100992.13;5097417;27;46131;-82
2021/07/02 05:44:26;;;;;;;;;35.50;31.25;;;;;20.91;60.61;100989.66;5104623;27;45544;-81
2021/07/02 05:46:52;;;;;;;;;30.75;30.50;;;;;20.91;60.43;100986.16;5101363;27;45591;-81
2021/07/02 05:49:18;;;;;;;;;37.75;32.25;;;;;20.95;60.48;100996.31;5101193;27;45691;-82
2021/07/02 05:51:43;;;;;;;;;88.00;77.25;;;;;21.01;60.37;100999.28;5083088;27;45754;-81
2021/07/02 05:54:09;;;;;;;;;31.75;30.00;;;;;21.00;60.38;100987.81;5098326;27;45799;-81
2021/07/02 05:59:56;;;;;;;;;33.50;30.75;;;;;20.95;60.30;100980.31;5096980;27;45725;-83
2021/07/02 06:02:22;;;;;;;;;32.25;30.50;;;;;21.02;60.06;100982.31;5078110;27;45607;-81
2021/07/02 06:04:47;;;;;;;;;33.25;30.75;;;;;21.14;60.31;100989.84;5097230;27;45595;-82
2021/07/02 06:07:12;;;;;;;;;35.50;32.25;;;;;21.16;60.54;100992.34;5095562;27;45611;-81
2021/07/02 06:09:38;;;;;;;;;38.25;34.25;;;;;21.16;60.57;100987.03;5096721;27;45962;-81
2021/07/02 06:12:04;;;;;;;;;37.75;33.50;;;;;21.18;60.39;100993.81;5096683;27;45564;-81
2021/07/02 06:14:31;;;;;;;;;35.75;32.50;;;;;21.25;60.21;101002.81;5078054;27;45854;-81
2021/07/02 06:16:57;;;;;;;;;36.25;33.50;;;;;21.26;60.08;100998.31;5095219;27;47661;-81
2021/07/02 06:19:22;;;;;;;;;35.00;32.25;;;;;20.99;60.14;100951.53;5111587;27;48294;-83
2021/07/02 06:21:48;;;;;;;;;45.50;36.25;;;;;21.27;60.19;100995.47;5096262;27;45521;-82
2021/07/02 06:24:14;;;;;;;;;38.25;33.50;;;;;21.24;59.85;100987.00;5094667;27;45779;-82
2021/07/02 06:30:02;;;;;;;;;52.00;44.00;;;;;21.23;60.21;100977.31;5096027;27;46309;-82
2021/07/02 06:32:27;;;;;;;;;45.00;37.00;;;;;21.18;60.43;100971.66;5095999;27;45548;-81
2021/07/02 06:34:53;;;;;;;;;38.50;34.75;;;;;21.30;60.17;100991.66;5077525;27;45672;-80
2021/07/02 06:37:18;;;;;;;;;46.75;37.75;;;;;21.29;60.27;100995.31;5096129;27;45433;-80
2021/07/02 06:39:44;;;;;;;;;40.50;34.75;;;;;21.34;60.26;101004.47;5095753;27;45629;-79
2021/07/02 06:42:10;;;;;;;;;37.00;33.00;;;;;21.35;60.35;100991.97;5095697;27;45513;-79
2021/07/02 06:44:35;;;;;;;;;39.75;34.25;;;;;21.37;60.44;100992.66;5096261;27;45643;-80
2021/07/02 06:47:01;;;;;;;;;42.75;36.25;;;;;21.35;60.22;100989.31;5095843;27;46203;-79
2021/07/02 06:49:26;;;;;;;;;43.75;37.25;;;;;21.34;60.02;100991.13;5095532;27;46045;-78
2021/07/02 06:51:52;;;;;;;;;45.25;37.00;;;;;21.46;60.20;100998.78;5095864;27;46097;-79
2021/07/02 06:54:17;;;;;;;;;41.50;33.50;;;;;21.43;60.35;100994.63;5095335;27;45708;-76
2021/07/02 07:00:05;;;;;;;;;38.75;35.00;;;;;21.54;60.08;101010.25;5094843;27;46110;-79
2021/07/02 07:02:31;;;;;;;;;42.75;36.00;;;;;21.54;60.14;101009.44;5095308;27;45935;-77
2021/07/02 07:04:56;;;;;;;;;46.50;37.25;;;;;21.53;59.92;101007.78;5095706;27;45487;-79
2021/07/02 07:07:21;;;;;;;;;44.25;36.25;;;;;21.55;59.98;101014.59;5095313;27;46246;-79
2021/07/02 07:09:47;;;;;;;;;43.50;35.25;;;;;21.55;60.13;101013.75;5095070;27;46556;-79
2021/07/02 07:15:34;;;;;;;;;45.00;36.25;;;;;21.53;60.30;101002.44;5095557;27;45663;-77
2021/07/02 07:18:00;;;;;;;;;45.00;37.00;;;;;21.60;59.95;101008.75;5094950;27;46285;-79
2021/07/02 07:20:26;;;;;;;;;42.25;35.75;;;;;21.62;60.01;101006.75;5094897;27;46175;-78
2021/07/02 07:22:51;;;;;;;;;42.50;36.25;;;;;21.57;59.80;100999.25;5095263;27;45454;-78
2021/07/02 07:25:20;;;;;;;;;48.50;37.25;;;;;21.52;60.20;100990.13;5094863;27;45705;-77
2021/07/02 07:27:45;;;;;;;;;44.00;36.25;;;;;21.69;60.02;101010.41;5095059;27;45645;-77
2021/07/02 07:30:12;;;;;;;;;37.25;34.00;;;;;21.71;59.90;101011.88;5094830;27;45752;-79
2021/07/02 07:32:38;;;;;;;;;40.50;34.50;;;;;21.74;60.14;101014.22;5094681;27;45962;-76
2021/07/02 07:35:43;;;;;;;;;41.00;34.25;;;;;21.71;59.70;101001.22;5094601;27;45628;-77
2021/07/02 07:37:59;;;;;;;;;37.25;33.50;;;;;21.78;59.50;101007.53;5091543;27;45610;-78
2021/07/02 07:40:27;;;;;;;;;36.75;33.00;;;;;21.81;59.66;101009.00;5095019;27;45552;-77
2021/07/02 07:42:54;;;;;;;;;35.50;32.50;;;;;21.85;59.52;101009.53;5094870;27;45674;-76
2021/07/02 07:45:20;;;;;;;;;38.00;33.75;;;;;21.81;59.81;101003.69;5094615;27;45876;-77
2021/07/02 07:47:45;;;;;;;;;37.75;33.25;;;;;21.78;59.26;100996.88;5096252;27;45709;-78
2021/07/02 07:50:16;;;;;;;;;28.25;23.00;;;;;21.96;59.44;101026.03;5099938;27;46291;-79
2021/07/02 07:55:12;;;;;;;;;35.75;33.00;;;;;22.02;59.40;101019.16;5100424;27;45568;-77
2021/07/02 08:01:00;;;;;;;;;32.75;31.00;;;;;22.07;59.17;101014.97;5096042;27;46065;-77
2021/07/02 08:03:25;;;;;;;;;36.00;33.00;;;;;22.12;59.00;101023.28;5092421;27;45702;-77
2021/07/02 08:05:51;;;;;;;;;38.25;33.00;;;;;22.16;59.07;101026.44;5094103;27;45715;-78
2021/07/02 08:08:16;;;;;;;;;35.75;31.25;;;;;22.21;59.09;101028.56;5093664;27;45890;-78
2021/07/02 08:10:42;;;;;;;;;38.75;33.50;;;;;;;;5093327;27;46132;-78
2021/07/02 08:13:07;;;;;;;;;35.50;30.50;;;;;22.25;59.13;101027.22;5095717;27;45571;-78
2021/07/02 08:15:33;;;;;;;;;33.50;30.75;;;;;22.27;58.63;101026.03;5097546;27;45547;-77
2021/07/02 08:17:58;;;;;;;;;30.25;28.25;;;;;22.35;58.61;101030.53;5097545;27;46197;-78
2021/07/02 08:20:24;;;;;;;;;28.25;25.00;;;;;22.33;58.83;101022.69;5096036;27;45555;-77
2021/07/02 08:22:49;;;;;;;;;26.75;25.75;;;;;22.35;58.27;101017.97;5096216;27;45537;-79
2021/07/02 08:25:15;;;;;;;;;31.00;26.25;;;;;22.29;58.46;101007.19;5097163;27;45527;-78
2021/07/02 08:31:02;;;;;;;;;27.00;25.50;;;;;22.49;58.14;101029.75;5098063;27;46038;-79
2021/07/02 08:33:27;;;;;;;;;25.25;24.25;;;;;22.49;57.92;101027.94;5100013;27;45633;-79
2021/07/02 08:35:55;;;;;;;;;32.50;26.50;;;;;22.56;57.39;101036.06;5099758;27;45418;-79
2021/07/02 08:38:20;;;;;;;;;29.25;27.25;;;;;22.59;57.21;101022.34;5097888;27;46742;-78
2021/07/02 08:40:45;;;;;;;;;27.50;26.00;;;;;22.63;57.20;101020.97;5097630;27;46587;-80
2021/07/02 08:46:37;;;;;;;;;26.25;23.75;;;;;22.72;56.97;101025.31;5097016;27;45681;-81
2021/07/02 08:49:04;;;;;;;;;26.25;25.25;;;;;22.80;56.77;101019.06;5097180;27;45564;-79
2021/07/02 08:51:31;;;;;;;;;23.50;22.00;;;;;22.88;56.78;101011.00;5097031;27;46159;-79
2021/07/02 08:53:57;;;;;;;;;24.25;23.25;;;;;22.93;56.97;101020.16;5079212;27;45940;-78
2021/07/02 08:56:23;;;;;;;;;24.00;23.50;;;;;22.98;57.17;101014.25;5097737;27;45627;-78
2021/07/02 08:58:48;;;;;;;;;23.25;20.50;;;;;23.05;57.16;101015.19;5078744;27;47977;-77
2021/07/02 09:01:34;;;;;;;;;23.50;21.00;;;;;23.12;56.58;101012.63;5097089;27;46100;-79
2021/07/02 09:04:16;;;;;;;;;21.75;20.25;;;;;23.16;56.36;101022.78;5096886;27;45597;-77
2021/07/02 09:06:43;;;;;;;;;24.25;20.25;;;;;23.19;56.77;101008.22;5078711;27;45767;-79
2021/07/02 09:09:11;;;;;;;;;21.75;21.25;;;;;23.24;56.33;101013.84;5077718;27;45580;-77
2021/07/02 09:11:37;;;;;;;;;22.00;21.75;;;;;23.21;56.55;101001.66;5078172;27;46783;-78
2021/07/02 09:14:04;;;;;;;;;25.00;24.00;;;;;23.30;55.95;101007.78;5097216;27;45649;-79
2021/07/02 09:16:38;;;;;;;;;22.25;20.50;;;;;23.28;55.84;100999.09;5078843;27;45860;-78
2021/07/02 09:19:23;;;;;;;;;21.75;21.25;;;;;23.33;55.80;101010.91;5095122;27;48390;-78
2021/07/02 09:21:50;;;;;;;;;22.75;20.50;;;;;23.35;56.39;101000.88;5096665;27;46220;-77
2021/07/02 09:24:40;;;;;;;;;22.75;22.50;;;;;23.38;55.81;101002.34;5078340;27;45638;-78
2021/07/02 09:27:27;;;;;;;;;23.00;22.25;;;;;23.38;55.47;100995.16;5097407;27;45532;-77
2021/07/02 09:30:08;;;;;;;;;23.25;21.75;;;;;23.41;55.23;100989.47;5095177;27;47251;-79
2021/07/02 09:32:39;;;;;;;;;22.50;21.50;;;;;23.42;55.62;100982.25;5096680;27;45859;-80
2021/07/02 09:35:07;;;;;;;;;21.00;19.75;;;;;23.45;55.37;100995.25;5096377;27;45718;-80
2021/07/02 09:37:54;;;;;;;;;20.25;19.25;;;;;23.43;55.23;100983.91;5078942;27;45707;-79
2021/07/02 09:40:23;;;;;;;;;19.50;19.50;;;;;23.54;55.06;100988.00;5080773;27;47522;-82
2021/07/02 09:42:58;;;;;;;;;21.75;20.00;;;;;23.55;55.00;100985.16;5076622;27;46068;-78
2021/07/02 09:45:24;;;;;;;;;19.50;19.50;;;;;23.63;54.87;100985.06;5096798;27;45704;-78
2021/07/02 09:47:50;;;;;;;;;20.50;17.00;;;;;23.67;54.85;100982.84;5096299;27;45595;-78
2021/07/02 09:50:20;;;;;;;;;19.25;18.50;;;;;23.74;55.04;100986.47;5096799;27;46221;-77
2021/07/02 09:52:51;;;;;;;;;16.25;16.00;;;;;23.76;54.89;100979.88;5097035;27;45993;-80
2021/07/02 09:55:19;;;;;;;;;19.25;18.00;;;;;23.82;54.33;100983.66;5098464;27;45596;-79
2021/07/02 09:57:45;;;;;;;;;13.75;13.75;;;;;23.87;54.78;100985.78;5104333;27;45696;-79
2021/07/02 10:00:15;;;;;;;;;19.75;19.75;;;;;23.90;54.62;100985.44;5084359;27;47912;-78
2021/07/02 10:03:10;;;;;;;;;16.75;16.25;;;;;23.95;54.65;100983.00;5102089;27;45538;-79
2021/07/02 10:06:00;;;;;;;;;18.75;17.00;;;;;24.00;54.34;100981.44;5019687;28;45649;-77
2021/07/02 10:08:28;;;;;;;;;14.25;13.00;;;;;24.05;53.91;100988.91;5008988;28;45551;-78
2021/07/02 10:10:56;;;;;;;;;16.00;15.50;;;;;24.09;53.45;100979.47;5013833;28;45701;-79
2021/07/02 10:13:25;;;;;;;;;14.75;13.25;;;;;24.15;54.01;100979.56;5029606;28;46483;-80
2021/07/02 10:15:53;;;;;;;;;15.00;14.50;;;;;24.16;52.56;100983.91;5029750;28;45675;-79
2021/07/02 10:18:19;;;;;;;;;14.50;14.50;;;;;24.23;53.10;100981.34;5013426;28;45735;-78
2021/07/02 10:20:46;;;;;;;;;15.00;14.75;;;;;24.29;52.84;100977.06;5013125;28;46385;-79
2021/07/02 10:23:15;;;;;;;;;16.50;15.00;;;;;24.16;53.18;100957.13;5013196;28;46498;-78
2021/07/02 10:25:42;;;;;;;;;15.50;13.25;;;;;24.40;52.55;100979.25;5013224;28;45712;-77
2021/07/02 10:28:11;;;;;;;;;18.50;16.25;;;;;24.46;52.83;100981.16;5013184;28;45757;-77
2021/07/02 10:30:39;;;;;;;;;15.00;15.00;;;;;24.51;52.28;100982.25;5013409;28;46788;-80
2021/07/02 10:33:05;;;;;;;;;15.25;15.00;;;;;24.57;52.38;100969.94;5012829;28;46303;-79
2021/07/02 10:35:30;;;;;;;;;17.50;16.00;;;;;24.63;52.31;100979.91;5012853;28;45928;-80
2021/07/02 10:37:58;;;;;;;;;18.00;14.25;;;;;24.57;51.70;100968.09;5012261;28;45614;-80
2021/07/02 10:40:33;;;;;;;;;19.00;17.00;;;;;24.74;52.37;100976.69;5012864;28;46810;-79
2021/07/02 10:43:11;;;;;;;;;14.25;14.25;;;;;24.82;52.42;100976.59;5087883;27;46146;-79
2021/07/02 10:45:38;;;;;;;;;17.00;15.75;;;;;24.89;52.37;100977.47;5095512;27;45701;-78
2021/07/02 10:48:04;;;;;;;;;15.50;15.00;;;;;24.87;52.31;100970.63;5094982;27;45548;-78
2021/07/02 10:50:47;;;;;;;;;17.00;16.25;;;;;24.94;52.12;100972.38;5095640;27;46614;-78
2021/07/02 10:53:25;;;;;;;;;15.75;13.00;;;;;25.02;52.04;100977.59;5095652;27;45917;-77
2021/07/02 10:55:52;;;;;;;;;16.00;15.00;;;;;25.08;51.69;100973.31;5095528;27;45495;-77
2021/07/02 10:58:20;;;;;;;;;13.75;12.75;;;;;25.13;51.86;100976.25;5095539;27;45500;-78
2021/07/02 11:01:08;;;;;;;;;12.25;10.75;;;;;25.14;51.93;100971.72;5095714;27;46285;-77
2021/07/02 11:03:34;;;;;;;;;15.75;15.75;;;;;25.08;51.62;100955.38;5095793;27;46210;-79
2021/07/02 11:06:38;;;;;;;;;16.00;16.00;;;;;25.18;51.83;100964.94;5095652;27;45633;-78
2021/07/02 11:09:04;;;;;;;;;16.00;15.00;;;;;25.10;51.33;100951.69;5095461;27;45684;-77
2021/07/02 11:12:04;;;;;;;;;16.25;15.75;;;;;25.23;51.19;100971.38;5094999;27;46921;-78
2021/07/02 11:14:29;;;;;;;;;12.00;11.50;;;;;25.25;51.39;100960.44;5094905;27;46229;-78
2021/07/02 11:17:36;;;;;;;;;17.00;16.75;;;;;25.28;51.10;100952.00;5095176;27;46103;-78
2021/07/02 11:20:04;;;;;;;;;14.50;13.25;;;;;25.33;50.80;100953.06;5095272;27;45675;-78
2021/07/02 11:22:34;;;;;;;;;13.75;13.25;;;;;25.37;50.34;100953.53;5094986;27;45504;-79
2021/07/02 11:25:01;;;;;;;;;15.50;14.75;;;;;25.36;50.43;100925.03;5094920;27;47116;-77
2021/07/02 11:30:48;;;;;;;;;13.00;13.00;;;;;25.61;50.13;100931.59;5094972;27;45702;-78
2021/07/02 11:33:24;;;;;;;;;12.00;12.00;;;;;25.68;50.30;100935.13;5094571;27;46532;-79
2021/07/02 11:35:52;;;;;;;;;13.25;12.00;;;;;25.72;49.94;100938.25;5094513;27;46049;-78
2021/07/02 11:38:22;;;;;;;;;14.75;12.75;;;;;25.74;49.79;100930.81;5094648;27;45731;-79
2021/07/02 11:40:52;;;;;;;;;12.00;11.25;;;;;25.77;49.86;100933.94;5095144;27;45736;-79
2021/07/02 11:46:39;;;;;;;;;11.00;11.00;;;;;25.81;49.87;100939.72;5094337;27;46131;-80
2021/07/02 11:49:05;;;;;;;;;12.00;12.00;;;;;25.84;49.66;100928.59;5094968;27;45610;-78
2021/07/02 11:51:33;;;;;;;;;13.25;13.25;;;;;25.76;49.08;100920.69;5094948;27;45571;-81
2021/07/02 11:54:00;;;;;;;;;12.00;10.00;;;;;25.87;49.33;100939.75;5094992;27;47298;-78
2021/07/02 11:56:31;;;;;;;;;12.50;11.75;;;;;25.88;49.05;100928.00;5095119;27;46947;-78
2021/07/02 12:02:18;;;;;;;;;13.75;11.25;;;;;25.94;48.87;100938.94;5097896;27;45704;-79
2021/07/02 12:04:43;;;;;;;;;9.75;9.75;;;;;25.97;48.73;100925.94;5098511;27;47164;-79
2021/07/02 12:07:09;;;;;;;;;9.75;9.25;;;;;25.96;48.54;100921.63;5080702;27;47168;-79
2021/07/02 12:09:40;;;;;;;;;13.50;12.00;;;;;26.03;48.15;100922.44;5099339;27;45667;-79
2021/07/02 12:12:06;;;;;;;;;12.25;12.25;;;;;26.06;48.28;100915.84;5100823;27;45787;-80
2021/07/02 12:18:04;;;;;;;;;12.25;12.00;;;;;26.12;48.22;100918.56;5094448;27;45853;-78
2021/07/02 12:20:31;;;;;;;;;10.00;9.75;;;;;26.10;48.03;100901.81;5094918;27;45640;-79
2021/07/02 12:23:02;;;;;;;;;13.50;13.00;;;;;26.20;48.02;100914.84;5093132;27;45654;-81
2021/07/02 12:25:27;;;;;;;;;11.00;10.75;;;;;26.23;48.23;100917.19;5094494;27;46491;-79
2021/07/02 12:28:02;;;;;;;;;14.00;13.00;;;;;26.27;48.05;100921.94;5094128;27;45661;-79
2021/07/02 12:33:49;;;;;;;;;14.25;12.25;;;;;26.30;47.88;100916.16;5094271;27;45626;-78
2021/07/02 12:36:14;;;;;;;;;12.00;12.00;;;;;26.30;47.65;100900.03;5094303;27;45612;-79
2021/07/02 12:39:01;;;;;;;;;12.25;11.75;;;;;26.46;47.34;100916.78;5094162;27;46731;-80